Time;durP1;ratioP1;P1;durP2;ratioP2;P2;SDS_P1;SDS_P2;PMS_P1;PMS_P2;Temp;Humidity;BMP_temperature;BMP_pressure;BME280_temperature;BME280_humidity;BME280_pressure;Samples;Min_cycle;Max_cycle;Signal;HPM_P1;HPM_P2
2022/12/16 00:02:16;;;;;;;;;;;;;;;;;;5052463;28;1172;-76
2022/12/16 00:04:42;;;;;;;;;;;;;;;;;;5054454;28;825;-77
2022/12/16 00:07:10;;;;;;;;;;;;;;;;;;5054286;28;1290;-77
2022/12/16 00:09:36;;;;;;;;;;;;;;;;;;5054316;28;874;-77
2022/12/16 00:12:03;;;;;;;;;;;;;;;;;;5053392;28;916;-77
2022/12/16 00:14:29;;;;;;;;;;;;;;;;;;5054068;28;651;-77
2022/12/16 00:16:55;;;;;;;;;;;;;;;;;;5055637;28;1906;-77
2022/12/16 00:19:21;;;;;;;;;;;;;;;;;;5055414;28;1059;-77
2022/12/16 00:21:47;;;;;;;;;;;;;;;;;;5056765;28;1138;-77
2022/12/16 00:24:15;;;;;;;;;;;;;;;;;;5058593;28;758;-77
2022/12/16 00:26:41;;;;;;;;;;;;;;;;;;5058421;28;1284;-77
2022/12/16 00:29:09;;;;;;;;;;;;;;;;;;5056348;28;1055;-77
2022/12/16 00:31:36;;;;;;;;;;;;;;;;;;5054201;28;1518;-77
2022/12/16 00:34:02;;;;;;;;;;;;;;;;;;5055424;28;1138;-78
2022/12/16 00:36:28;;;;;;;;;;;;;;;;;;5055500;28;1906;-77
2022/12/16 00:38:54;;;;;;;;;;;;;;;;;;5055765;28;758;-77
2022/12/16 00:41:22;;;;;;;;;;;;;;;;;;5051310;28;1655;-76
2022/12/16 00:43:48;;;;;;;;;;;;;;;;;;5054886;28;1061;-77
2022/12/16 00:46:14;;;;;;;;;;;;;;;;;;5055084;28;1313;-77
2022/12/16 00:48:40;;;;;;;;;;;;;;;;;;5048239;28;1044;-77
2022/12/16 00:51:07;;;;;;;;;;;;;;;;;;5035241;28;1115;-77
2022/12/16 00:53:34;;;;;;;;;;;;;;;;;;5034845;28;1119;-78
2022/12/16 00:56:03;;;;;;;;;;;;;;;;;;5035390;28;1397;-77
2022/12/16 00:58:31;;;;;;;;;;;;;;;;;;5033460;28;1973;-77
2022/12/16 01:00:57;;;;;;;;;;;;;;;;;;5035377;28;2082;-76
2022/12/16 01:03:24;;;;;;;;;;;;;;;;;;5046930;28;2043;-78
2022/12/16 01:05:50;;;;;;;;;;;;;;;;;;5049525;28;1494;-77
2022/12/16 01:08:16;;;;;;;;;;;;;;;;;;5052335;28;1636;-77
2022/12/16 01:10:42;;;;;;;;;;;;;;;;;;5052439;28;1322;-77
2022/12/16 01:13:09;;;;;;;;;;;;;;;;;;5053033;28;1083;-77
2022/12/16 01:15:38;;;;;;;;;;;;;;;;;;5053509;28;1313;-77
2022/12/16 01:18:04;;;;;;;;;;;;;;;;;;5053263;28;1983;-77
2022/12/16 01:20:32;;;;;;;;;;;;;;;;;;5053207;28;845;-77
2022/12/16 01:22:58;;;;;;;;;;;;;;;;;;5051829;28;795;-77
2022/12/16 01:25:24;;;;;;;;;;;;;;;;;;5049786;28;1160;-77
2022/12/16 01:27:50;;;;;;;;;;;;;;;;;;5048606;28;1321;-77
2022/12/16 01:30:16;;;;;;;;;;;;;;;;;;5048638;28;1122;-78
2022/12/16 01:32:44;;;;;;;;;;;;;;;;;;5047445;28;1183;-78
2022/12/16 01:35:12;;;;;;;;;;;;;;;;;;5048748;28;1055;-77
2022/12/16 01:37:38;;;;;;;;;;;;;;;;;;5037704;28;1973;-78
2022/12/16 01:40:05;;;;;;;;;;;;;;;;;;5029284;28;1067;-77
2022/12/16 01:42:32;;;;;;;;;;;;;;;;;;5028568;28;1239;-78
2022/12/16 01:45:13;;;;;;;;;;;;;;;;;;5036465;28;2062;-76
2022/12/16 01:47:39;;;;;;;;;;;;;;;;;;5037637;28;1964;-77
2022/12/16 01:50:09;;;;;;;;;;;;;;;;;;5047163;28;1235;-77
2022/12/16 01:52:36;;;;;;;;;;;;;;;;;;5047843;28;1075;-78
2022/12/16 01:55:05;;;;;;;;;;;;;;;;;;5047130;28;1089;-78
2022/12/16 01:57:33;;;;;;;;;;;;;;;;;;5047997;28;1926;-79
2022/12/16 01:59:59;;;;;;;;;;;;;;;;;;5048197;28;1135;-77
2022/12/16 02:02:25;;;;;;;;;;;;;;;;;;5047260;28;1115;-76
2022/12/16 02:07:37;;;;;;;;;;;;;;;;;;5048003;28;1411;-77
2022/12/16 02:10:04;;;;;;;;;;;;;;;;;;5046556;28;1214;-77
2022/12/16 02:12:31;;;;;;;;;;;;;;;;;;5045949;28;1131;-77
2022/12/16 02:15:13;;;;;;;;;;;;;;;;;;5046502;28;1119;-77
2022/12/16 02:17:41;;;;;;;;;;;;;;;;;;5047575;28;1980;-78
2022/12/16 02:20:26;;;;;;;;;;;;;;;;;;5046469;28;1044;-78
2022/12/16 02:22:59;;;;;;;;;;;;;;;;;;5046934;28;1080;-78
2022/12/16 02:25:31;;;;;;;;;;;;;;;;;;5047661;28;1064;-77
2022/12/16 02:28:05;;;;;;;;;;;;;;;;;;5047374;28;1402;-78
2022/12/16 02:30:49;;;;;;;;;;;;;;;;;;5047312;28;987;-78
2022/12/16 02:33:23;;;;;;;;;;;;;;;;;;5028520;28;1169;-78
2022/12/16 02:35:50;;;;;;;;;;;;;;;;;;5045473;28;1433;-76
2022/12/16 02:38:18;;;;;;;;;;;;;;;;;;5047495;28;1910;-78
2022/12/16 02:40:45;;;;;;;;;;;;;;;;;;5046267;28;1135;-78
2022/12/16 02:43:12;;;;;;;;;;;;;;;;;;5046466;28;1122;-76
2022/12/16 02:45:39;;;;;;;;;;;;;;;;;;5046361;28;1477;-78
2022/12/16 02:48:05;;;;;;;;;;;;;;;;;;5047706;28;1083;-78
2022/12/16 02:50:35;;;;;;;;;;;;;;;;;;5047334;28;1023;-77
2022/12/16 02:53:01;;;;;;;;;;;;;;;;;;5047757;28;1115;-78
2022/12/16 02:55:28;;;;;;;;;;;;;;;;;;5048694;28;1123;-78
2022/12/16 02:57:58;;;;;;;;;;;;;;;;;;5047691;28;1977;-78
2022/12/16 03:00:24;;;;;;;;;;;;;;;;;;5051769;28;1123;-77
2022/12/16 03:02:53;;;;;;;;;;;;;;;;;;5048249;28;1027;-77
2022/12/16 03:05:20;;;;;;;;;;;;;;;;;;5045646;28;1056;-78
2022/12/16 03:07:48;;;;;;;;;;;;;;;;;;5044376;28;1702;-77
2022/12/16 03:10:15;;;;;;;;;;;;;;;;;;5046897;28;1069;-78
2022/12/16 03:12:42;;;;;;;;;;;;;;;;;;5046657;28;901;-78
2022/12/16 03:15:08;;;;;;;;;;;;;;;;;;5048298;28;1130;-77
2022/12/16 03:17:35;;;;;;;;;;;;;;;;;;5051320;28;1914;-77
2022/12/16 03:20:04;;;;;;;;;;;;;;;;;;5051471;28;849;-77
2022/12/16 03:22:30;;;;;;;;;;;;;;;;;;5051376;28;846;-77
2022/12/16 03:24:57;;;;;;;;;;;;;;;;;;5051906;28;1699;-76
2022/12/16 03:27:24;;;;;;;;;;;;;;;;;;5038705;28;1420;-77
2022/12/16 03:29:51;;;;;;;;;;;;;;;;;;5028101;28;963;-77
2022/12/16 03:32:18;;;;;;;;;;;;;;;;;;5027592;28;937;-77
2022/12/16 03:34:45;;;;;;;;;;;;;;;;;;5028307;28;1214;-78
2022/12/16 03:37:12;;;;;;;;;;;;;;;;;;5040259;28;1904;-76
2022/12/16 03:39:39;;;;;;;;;;;;;;;;;;5039009;28;2127;-78
2022/12/16 03:42:07;;;;;;;;;;;;;;;;;;5024504;28;1268;-78
2022/12/16 03:44:34;;;;;;;;;;;;;;;;;;5026401;28;1352;-78
2022/12/16 03:47:00;;;;;;;;;;;;;;;;;;5025615;28;1429;-78
2022/12/16 03:49:27;;;;;;;;;;;;;;;;;;5026674;28;1056;-78
2022/12/16 03:51:53;;;;;;;;;;;;;;;;;;5025978;28;929;-78
2022/12/16 03:54:19;;;;;;;;;;;;;;;;;;5026694;28;787;-78
2022/12/16 03:56:46;;;;;;;;;;;;;;;;;;5025804;28;1389;-77
2022/12/16 03:59:14;;;;;;;;;;;;;;;;;;5025743;28;1976;-78
2022/12/16 04:01:40;;;;;;;;;;;;;;;;;;5026337;28;1002;-76
2022/12/16 04:04:06;;;;;;;;;;;;;;;;;;5025269;28;1313;-77
2022/12/16 04:06:32;;;;;;;;;;;;;;;;;;5027438;28;1373;-77
2022/12/16 04:08:58;;;;;;;;;;;;;;;;;;5027631;28;1132;-78
2022/12/16 04:25:06;;;;;;;;;;;;;;;;;;5051763;28;1089;-77
2022/12/16 04:27:33;;;;;;;;;;;;;;;;;;5051990;28;1286;-77
